Time;durP1;ratioP1;P1;durP2;ratioP2;P2;SDS_P1;SDS_P2;PMS_P1;PMS_P2;Temp;Humidity;BMP_temperature;BMP_pressure;BME280_temperature;BME280_humidity;BME280_pressure;Samples;Min_cycle;Max_cycle;Signal;HPM_P1;HPM_P2
2022/06/20 00:02:24;;;;;;;;;;;;;;;21.35;57.07;100876.81;7401700;19;1604;-60
2022/06/20 00:04:54;;;;;;;;;;;;;;;21.36;57.01;100886.56;7404143;19;1508;-60
2022/06/20 00:07:24;;;;;;;;;;;;;;;21.33;57.03;100868.91;7403743;19;1509;-60
2022/06/20 00:09:52;;;;;;;;;;;;;;;21.35;56.87;100871.44;7404490;19;1393;-60
2022/06/20 00:12:22;;;;;;;;;;;;;;;21.38;56.77;100877.34;7403432;19;1481;-60
2022/06/20 00:14:56;;;;;;;;;;;;;;;21.35;56.83;100855.31;7401433;19;1849;-60
2022/06/20 00:17:25;;;;;;;;;;;;;;;21.33;57.10;100873.41;7403709;19;1276;-60
2022/06/20 00:19:53;;;;;;;;;;;;;;;21.32;57.27;100871.72;7402801;19;1876;-60
2022/06/20 00:22:22;;;;;;;;;;;;;;;21.34;57.15;100864.34;7402381;19;1565;-60
2022/06/20 00:24:51;;;;;;;;;;;;;;;21.32;57.15;100856.41;7410786;19;1404;-60
2022/06/20 00:27:19;;;;;;;;;;;;;;;21.33;57.10;100852.75;7410707;19;1372;-60
2022/06/20 00:29:49;;;;;;;;;;;;;;;21.33;57.38;100842.00;7410625;19;1371;-60
2022/06/20 00:32:20;;;;;;;;;;;;;;;21.30;57.43;100853.03;7410385;19;1384;-61
2022/06/20 00:34:48;;;;;;;;;;;;;;;21.33;57.50;100847.38;7408590;19;1858;-60
2022/06/20 00:37:19;;;;;;;;;;;;;;;21.35;57.31;100856.13;7409286;19;1624;-61
2022/06/20 00:39:49;;;;;;;;;;;;;;;21.31;57.06;100849.38;7411465;19;992;-60
2022/06/20 00:42:18;;;;;;;;;;;;;;;21.35;57.31;100844.53;7409436;19;1494;-60
2022/06/20 00:44:49;;;;;;;;;;;;;;;21.32;56.97;100840.28;7409620;19;1316;-60
2022/06/20 00:47:22;;;;;;;;;;;;;;;21.29;57.17;100840.59;7410390;19;1494;-60
2022/06/20 00:49:53;;;;;;;;;;;;;;;21.28;57.04;100841.56;7409098;19;1544;-60
2022/06/20 00:52:24;;;;;;;;;;;;;;;21.26;56.92;100820.19;7410275;19;1328;-60
2022/06/20 00:54:55;;;;;;;;;;;;;;;21.28;56.99;100846.97;7409314;19;1853;-60
2022/06/20 00:57:28;;;;;;;;;;;;;;;21.28;56.97;100828.13;7405141;19;1831;-60
2022/06/20 01:00:01;;;;;;;;;;;;;;;21.25;57.01;100831.13;7408371;19;1542;-60
2022/06/20 01:02:34;;;;;;;;;;;;;;;21.26;56.94;100838.19;7408142;19;1443;-60
2022/06/20 01:05:04;;;;;;;;;;;;;;;21.28;56.89;100817.38;7408989;19;1553;-60
2022/06/20 01:07:36;;;;;;;;;;;;;;;21.26;56.74;100824.75;7409182;19;1675;-60
2022/06/20 01:10:06;;;;;;;;;;;;;;;21.25;56.60;100823.91;7409100;19;1372;-60
2022/06/20 01:12:39;;;;;;;;;;;;;;;21.23;56.84;100807.06;7408776;19;1642;-60
2022/06/20 01:15:18;;;;;;;;;;;;;;;21.25;56.83;100825.75;7406182;19;1846;-60
2022/06/20 01:17:50;;;;;;;;;;;;;;;21.27;56.78;100831.84;7408709;19;1537;-60
2022/06/20 01:20:23;;;;;;;;;;;;;;;21.24;56.42;100835.66;7408082;19;1599;-60
2022/06/20 01:23:05;;;;;;;;;;;;;;;21.22;56.50;100817.97;7409201;19;1440;-60
2022/06/20 01:25:40;;;;;;;;;;;;;;;21.24;56.46;100832.13;7408869;19;1508;-60
2022/06/20 01:28:13;;;;;;;;;;;;;;;21.20;56.54;100831.56;7407738;19;1680;-60
2022/06/20 01:30:43;;;;;;;;;;;;;;;21.22;56.29;100823.34;7408502;19;1546;-60
2022/06/20 01:33:13;;;;;;;;;;;;;;;21.20;56.54;100836.94;7408627;19;1353;-60
2022/06/20 01:38:23;;;;;;;;;;;;;;;21.20;56.21;100826.19;7409401;19;1623;-60
2022/06/20 01:43:36;;;;;;;;;;;;;;;21.16;56.54;100824.78;7409432;19;1395;-60
2022/06/20 01:46:09;;;;;;;;;;;;;;;21.22;56.86;100834.09;7407699;19;1779;-60
2022/06/20 01:48:39;;;;;;;;;;;;;;;21.21;56.64;100825.19;7408127;19;1637;-59
2022/06/20 01:51:10;;;;;;;;;;;;;;;21.20;56.55;100823.50;7407908;19;1535;-60
2022/06/20 01:53:38;;;;;;;;;;;;;;;21.22;56.74;100828.72;7407388;19;1858;-59
2022/06/20 01:56:08;;;;;;;;;;;;;;;21.20;56.83;100825.34;7409036;19;1304;-59
2022/06/20 01:58:40;;;;;;;;;;;;;;;21.18;56.81;100817.41;7407327;19;1591;-59
2022/06/20 02:01:13;;;;;;;;;;;;;;;21.19;57.05;100842.50;7385199;19;1816;-33
2022/06/20 02:03:43;;;;;;;;;;;;;;;21.18;56.94;100828.19;7400844;19;2022;-33
2022/06/20 02:06:23;;;;;;;;;;;;;;;21.18;56.90;100838.94;7404251;19;1742;-33
2022/06/20 02:08:53;;;;;;;;;;;;;;;21.22;57.05;100834.94;7403405;19;1527;-33
2022/06/20 02:11:23;;;;;;;;;;;;;;;21.19;56.87;100829.03;7403235;19;1476;-33
2022/06/20 02:14:02;;;;;;;;;;;;;;;21.21;56.82;100837.81;7404281;19;1891;-33
2022/06/20 02:16:36;;;;;;;;;;;;;;;21.19;56.86;100835.25;7403928;19;1661;-33
2022/06/20 02:19:18;;;;;;;;;;;;;;;21.17;56.93;100817.56;7403948;19;1969;-33
2022/06/20 02:21:55;;;;;;;;;;;;;;;21.17;57.13;100820.25;7403129;19;1474;-33
2022/06/20 02:24:27;;;;;;;;;;;;;;;21.17;56.82;100831.00;7402894;19;1747;-33
2022/06/20 02:27:01;;;;;;;;;;;;;;;21.16;57.11;100823.94;7403680;19;2228;-34
2022/06/20 02:29:36;;;;;;;;;;;;;;;21.20;57.12;100819.97;7403990;19;1584;-33
2022/06/20 02:32:15;;;;;;;;;;;;;;;21.16;57.31;100821.25;7403510;19;1667;-33
2022/06/20 02:34:48;;;;;;;;;;;;;;;21.16;56.78;100819.41;7402165;19;1859;-33
2022/06/20 02:37:23;;;;;;;;;;;;;;;21.16;56.87;100813.19;7403817;19;1921;-33
2022/06/20 02:39:53;;;;;;;;;;;;;;;21.17;56.79;100822.94;7404059;19;1001;-33
2022/06/20 02:42:25;;;;;;;;;;;;;;;21.13;56.91;100819.72;7401330;19;1920;-33
2022/06/20 02:45:10;;;;;;;;;;;;;;;21.19;57.24;100826.34;7400956;19;1952;-33
2022/06/20 02:47:53;;;;;;;;;;;;;;;21.16;56.95;100813.19;7402147;19;1704;-33
2022/06/20 02:50:34;;;;;;;;;;;;;;;21.16;56.95;100814.03;7402088;19;1421;-33
2022/06/20 02:53:24;;;;;;;;;;;;;;;21.16;56.88;100815.88;7401352;19;1574;-33
2022/06/20 02:55:57;;;;;;;;;;;;;;;21.17;56.81;100817.56;7400688;19;1848;-32
2022/06/20 02:58:31;;;;;;;;;;;;;;;21.14;56.82;100829.47;7402459;19;1697;-33
2022/06/20 03:01:03;;;;;;;;;;;;;;;21.17;57.00;100834.56;7401637;19;1614;-33
2022/06/20 03:03:37;;;;;;;;;;;;;;;21.16;56.80;100823.94;7400931;19;1494;-33
2022/06/20 03:06:10;;;;;;;;;;;;;;;21.17;57.02;100822.94;7401881;19;1416;-33
2022/06/20 03:08:42;;;;;;;;;;;;;;;21.14;57.02;100815.19;7402187;19;1817;-33
2022/06/20 03:11:19;;;;;;;;;;;;;;;21.15;56.46;100806.09;7403993;19;1518;-33
2022/06/20 03:13:48;;;;;;;;;;;;;;;21.15;56.74;100806.09;7402019;19;1602;-33
2022/06/20 03:16:28;;;;;;;;;;;;;;;21.17;56.52;100817.56;7399734;19;1849;-33
2022/06/20 03:19:03;;;;;;;;;;;;;;;21.15;56.58;100823.09;7401405;19;1613;-33
2022/06/20 03:24:24;;;;;;;;;;;;;;;21.19;56.67;100818.28;7398533;19;2503;-33
2022/06/20 03:26:55;;;;;;;;;;;;;;;21.19;56.45;100826.34;7398639;19;1897;-33
2022/06/20 03:29:26;;;;;;;;;;;;;;;21.17;56.50;100814.88;7401553;19;1598;-33
2022/06/20 03:32:04;;;;;;;;;;;;;;;21.18;56.54;100803.13;7401917;19;1692;-33
2022/06/20 03:34:35;;;;;;;;;;;;;;;21.19;56.36;100812.91;7401452;19;1877;-33
2022/06/20 03:37:20;;;;;;;;;;;;;;;21.21;56.74;100803.69;7401061;19;1562;-33
2022/06/20 03:39:50;;;;;;;;;;;;;;;21.23;56.53;100815.13;7402020;19;1705;-33
2022/06/20 03:42:43;;;;;;;;;;;;;;;21.24;56.56;100797.16;7399628;19;2026;-33
2022/06/20 03:45:17;;;;;;;;;;;;;;;21.25;56.64;100813.16;7400023;19;1699;-33
2022/06/20 03:48:05;;;;;;;;;;;;;;;21.32;56.47;100813.38;7400328;19;1783;-33
2022/06/20 03:50:41;;;;;;;;;;;;;;;21.27;56.80;100818.38;7400421;19;1947;-33
2022/06/20 03:53:19;;;;;;;;;;;;;;;21.29;56.70;100794.00;7401190;19;1598;-33
2022/06/20 03:55:56;;;;;;;;;;;;;;;21.32;56.59;100810.69;7400823;19;1855;-33
2022/06/20 03:58:39;;;;;;;;;;;;;;;21.30;56.50;100804.63;7404596;19;1448;-33
2022/06/20 04:01:11;;;;;;;;;;;;;;;21.36;56.54;100803.19;7407043;19;1837;-33
2022/06/20 04:03:48;;;;;;;;;;;;;;;21.36;56.45;100798.63;7405518;19;1815;-33
2022/06/20 04:06:25;;;;;;;;;;;;;;;21.40;56.78;100801.88;7406592;19;1564;-32
2022/06/20 04:11:41;;;;;;;;;;;;;;;21.49;56.68;100813.59;7408837;19;1689;-33
2022/06/20 04:14:12;;;;;;;;;;;;;;;21.46;56.58;100798.63;7408077;19;1516;-33
2022/06/20 04:16:49;;;;;;;;;;;;;;;21.45;56.95;100808.53;7404952;19;1836;-33
2022/06/20 04:19:44;;;;;;;;;;;;;;;21.57;56.63;100797.56;7406965;19;1579;-33
2022/06/20 04:22:16;;;;;;;;;;;;;;;21.62;57.29;100787.19;7407873;19;2078;-33
2022/06/20 04:24:49;;;;;;;;;;;;;;;21.66;57.55;100793.94;7409320;19;1047;-33
2022/06/20 04:27:21;;;;;;;;;;;;;;;21.63;57.76;100778.97;7406283;19;1801;-32
2022/06/20 04:30:06;;;;;;;;;;;;;;;21.68;58.15;100797.34;7406044;19;1562;-33
2022/06/20 04:32:36;;;;;;;;;;;;;;;21.81;58.19;100788.91;7407044;19;1292;-33
2022/06/20 04:35:13;;;;;;;;;;;;;;;21.86;58.07;100805.44;7405956;19;1875;-33
2022/06/20 04:37:48;;;;;;;;;;;;;;;21.85;58.08;100798.38;7407323;19;1558;-33
2022/06/20 04:40:26;;;;;;;;;;;;;;;21.81;58.05;100787.06;7406021;19;1590;-35
2022/06/20 04:43:09;;;;;;;;;;;;;;;21.90;57.99;100800.59;7402215;19;1992;-35
2022/06/20 04:45:44;;;;;;;;;;;;;;;21.91;58.78;100807.69;7406102;19;1810;-35
2022/06/20 04:48:21;;;;;;;;;;;;;;;21.92;58.48;100801.28;7405727;19;1713;-35
2022/06/20 04:50:57;;;;;;;;;;;;;;;21.93;58.91;100806.50;7407297;19;1677;-35
2022/06/20 04:53:39;;;;;;;;;;;;;;;21.99;58.64;100805.91;7404625;19;1927;-33
2022/06/20 04:56:09;;;;;;;;;;;;;;;22.01;59.19;100803.91;7402609;19;1826;-33
2022/06/20 04:58:41;;;;;;;;;;;;;;;22.01;58.53;100808.44;7405837;19;1814;-33
2022/06/20 05:01:10;;;;;;;;;;;;;;;22.04;58.62;100800.03;7405252;19;1788;-33
2022/06/20 05:03:55;;;;;;;;;;;;;;;22.08;59.57;100800.56;7405492;19;1784;-33
2022/06/20 05:06:28;;;;;;;;;;;;;;;22.23;58.61;100807.13;7404485;19;1647;-33
2022/06/20 05:09:11;;;;;;;;;;;;;;;22.20;58.93;100800.19;7404449;19;1325;-33
2022/06/20 05:11:43;;;;;;;;;;;;;;;22.16;58.86;100809.59;7404062;19;1706;-33
2022/06/20 05:14:17;;;;;;;;;;;;;;;21.84;58.93;100818.19;7405926;19;1606;-33
2022/06/20 05:16:52;;;;;;;;;;;;;;;21.92;59.54;100803.97;7403376;19;1852;-34
2022/06/20 05:19:32;;;;;;;;;;;;;;;22.18;58.89;100807.59;7404721;19;1515;-33
2022/06/20 05:22:06;;;;;;;;;;;;;;;22.24;59.12;100809.69;7402265;19;1736;-33
2022/06/20 05:27:26;;;;;;;;;;;;;;;22.38;58.70;100815.50;7402018;19;2147;-33
2022/06/20 05:30:00;;;;;;;;;;;;;;;22.38;58.38;100818.19;7403107;19;1777;-33
2022/06/20 05:32:42;;;;;;;;;;;;;;;22.42;58.38;100806.09;7405586;19;1433;-33
2022/06/20 05:35:20;;;;;;;;;;;;;;;22.42;58.53;100795.31;7404118;19;1869;-33
2022/06/20 05:37:55;;;;;;;;;;;;;;;22.52;58.77;100796.09;7405366;19;1863;-33
2022/06/20 05:40:33;;;;;;;;;;;;;;;22.53;58.95;100797.75;7405258;19;1931;-33
2022/06/20 05:43:12;;;;;;;;;;;;;;;22.58;58.50;100798.16;7404276;19;1635;-32
2022/06/20 05:45:40;;;;;;;;;;;;;;;22.64;58.77;100794.81;7404175;19;1679;-33
2022/06/20 05:48:16;;;;;;;;;;;;;;;22.59;58.55;100774.72;7404065;19;1337;-32
2022/06/20 05:50:55;;;;;;;;;;;;;;;22.56;58.60;100781.28;7404441;19;1663;-32
2022/06/20 05:53:35;;;;;;;;;;;;;;;22.57;58.67;100774.03;7403251;19;1537;-32
2022/06/20 05:56:06;;;;;;;;;;;;;;;22.74;58.93;100772.28;7403737;19;1852;-32
2022/06/20 05:58:55;;;;;;;;;;;;;;;22.73;58.78;100770.59;7405079;19;1898;-33
2022/06/20 06:01:30;;;;;;;;;;;;;;;22.75;58.96;100752.41;7402095;19;1384;-33
2022/06/20 06:04:09;;;;;;;;;;;;;;;22.69;59.10;100759.28;7404800;19;1668;-33
2022/06/20 06:06:40;;;;;;;;;;;;;;;22.61;59.63;100753.84;7403546;19;1466;-32
2022/06/20 06:09:25;;;;;;;;;;;;;;;22.54;59.58;100753.66;7404051;19;1690;-33
2022/06/20 06:12:00;;;;;;;;;;;;;;;22.50;59.51;100749.59;7402959;19;1841;-33
2022/06/20 06:14:32;;;;;;;;;;;;;;;22.47;59.85;100739.13;7404541;19;1831;-33
2022/06/20 06:17:23;;;;;;;;;;;;;;;22.48;59.59;100742.66;7402610;19;1865;-33
2022/06/20 06:19:58;;;;;;;;;;;;;;;22.47;60.14;100744.50;7403579;19;1667;-32
2022/06/20 06:22:36;;;;;;;;;;;;;;;22.43;59.80;100748.53;7403360;19;1852;-33
2022/06/20 06:25:24;;;;;;;;;;;;;;;22.46;60.03;100745.50;7404452;19;1682;-33
2022/06/20 06:28:09;;;;;;;;;;;;;;;22.45;60.00;100735.72;7400204;19;1618;-33
2022/06/20 06:30:43;;;;;;;;;;;;;;;22.47;60.18;100736.41;7403981;19;1884;-33
2022/06/20 06:33:25;;;;;;;;;;;;;;;22.45;60.07;100727.66;7403563;19;1839;-33
2022/06/20 06:35:57;;;;;;;;;;;;;;;22.49;59.78;100707.47;7401501;19;1841;-32
2022/06/20 06:38:32;;;;;;;;;;;;;;;22.50;60.10;100716.38;7403413;19;1893;-33
2022/06/20 06:41:07;;;;;;;;;;;;;;;22.49;59.89;100720.94;7402474;19;1655;-32
2022/06/20 06:43:40;;;;;;;;;;;;;;;22.48;60.21;100703.06;7403177;19;1955;-32
2022/06/20 06:46:17;;;;;;;;;;;;;;;22.49;60.10;100707.47;7402503;19;1861;-33
2022/06/20 06:49:00;;;;;;;;;;;;;;;22.53;60.28;100705.31;7402897;19;1611;-32
2022/06/20 06:54:15;;;;;;;;;;;;;;;22.49;60.60;100694.00;7401460;19;2310;-32
2022/06/20 06:57:01;;;;;;;;;;;;;;;22.55;60.10;100703.28;7399355;19;1999;-33
2022/06/20 06:59:35;;;;;;;;;;;;;;;22.53;60.06;100689.13;7401984;19;1933;-33
2022/06/20 07:02:05;;;;;;;;;;;;;;;22.55;60.08;100698.75;7399361;19;1777;-33
2022/06/20 07:04:42;;;;;;;;;;;;;;;22.53;60.29;100689.97;7402627;19;1683;-33
2022/06/20 07:07:18;;;;;;;;;;;;;;;22.54;60.17;100694.38;7402275;19;1828;-33
2022/06/20 07:09:48;;;;;;;;;;;;;;;22.50;60.37;100679.53;7403171;19;1762;-32
2022/06/20 07:12:25;;;;;;;;;;;;;;;22.53;60.34;100689.97;7401058;19;1877;-32
2022/06/20 07:15:00;;;;;;;;;;;;;;;22.54;60.09;100697.06;7400456;19;1624;-32
2022/06/20 07:17:52;;;;;;;;;;;;;;;22.52;60.70;100688.28;7399257;19;1846;-33
2022/06/20 07:20:25;;;;;;;;;;;;;;;22.49;60.85;100679.69;7401550;19;1476;-33
2022/06/20 07:23:14;;;;;;;;;;;;;;;22.55;60.69;100687.97;7401039;19;1587;-33
2022/06/20 07:25:52;;;;;;;;;;;;;;;22.47;60.96;100674.44;7402658;19;1606;-32
2022/06/20 07:28:36;;;;;;;;;;;;;;;22.52;60.53;100682.03;7401620;19;1708;-33
2022/06/20 07:31:22;;;;;;;;;;;;;;;22.51;60.38;100677.66;7401248;19;1529;-32
2022/06/20 07:34:11;;;;;;;;;;;;;;;22.57;60.65;100685.94;7399067;19;1361;-33
2022/06/20 07:36:43;;;;;;;;;;;;;;;22.55;60.87;100673.66;7400435;19;2032;-32
2022/06/20 07:39:17;;;;;;;;;;;;;;;22.56;60.63;100678.00;7401416;19;1931;-32
2022/06/20 07:41:54;;;;;;;;;;;;;;;22.52;60.84;100665.88;7401166;19;1471;-32
2022/06/20 07:44:28;;;;;;;;;;;;;;;22.52;60.39;100666.72;7400827;19;1876;-33
2022/06/20 07:47:17;;;;;;;;;;;;;;;22.54;60.84;100672.81;7401364;19;1683;-33
2022/06/20 07:49:53;;;;;;;;;;;;;;;22.51;60.66;100664.19;7401182;19;1674;-33
2022/06/20 07:52:23;;;;;;;;;;;;;;;22.53;60.86;100672.97;7400817;19;1905;-32
2022/06/20 07:54:56;;;;;;;;;;;;;;;22.57;60.89;100675.16;7402244;19;1803;-32
2022/06/20 07:57:27;;;;;;;;;;;;;;;22.56;60.82;100681.56;7399861;19;1846;-32
2022/06/20 08:00:05;;;;;;;;;;;;;;;22.51;60.63;100658.81;7399645;19;1956;-33
2022/06/20 08:02:35;;;;;;;;;;;;;;;22.51;60.97;100665.03;7398263;19;1813;-33
2022/06/20 08:05:16;;;;;;;;;;;;;;;22.64;60.40;100657.34;7402060;19;1761;-33
2022/06/20 08:07:52;;;;;;;;;;;;;;;22.56;60.96;100657.31;7401560;19;1551;-32
2022/06/20 08:10:28;;;;;;;;;;;;;;;22.56;60.74;100657.31;7401856;19;1667;-33
2022/06/20 08:13:01;;;;;;;;;;;;;;;22.53;60.61;100640.63;7401074;19;1811;-33
2022/06/20 08:15:32;;;;;;;;;;;;;;;22.54;60.84;100647.69;7400843;19;1943;-33
2022/06/20 08:18:02;;;;;;;;;;;;;;;22.62;60.99;100662.06;7400323;19;1805;-33
2022/06/20 08:20:41;;;;;;;;;;;;;;;22.43;60.91;100656.91;7398973;19;1518;-33
2022/06/20 08:23:18;;;;;;;;;;;;;;;21.65;61.72;100637.03;7400082;19;1663;-33
2022/06/20 08:25:52;;;;;;;;;;;;;;;20.99;61.85;100664.25;7400868;19;1916;-32
2022/06/20 08:28:30;;;;;;;;;;;;;;;20.85;61.82;100661.09;7399095;19;1982;-32
2022/06/20 08:31:02;;;;;;;;;;;;;;;20.84;61.95;100653.19;7398890;19;1575;-32
2022/06/20 08:33:34;;;;;;;;;;;;;;;20.73;62.29;100658.75;7399007;19;1782;-32
2022/06/20 08:36:12;;;;;;;;;;;;;;;20.65;62.13;100655.00;7400011;19;1898;-32
2022/06/20 08:38:43;;;;;;;;;;;;;;;20.63;62.26;100662.34;7399068;19;1580;-39
2022/06/20 08:41:28;;;;;;;;;;;;;;;20.58;62.20;100653.00;7400653;19;1494;-32
2022/06/20 08:44:23;;;;;;;;;;;;;;;20.58;62.30;100653.84;7400880;19;1958;-32
2022/06/20 08:47:06;;;;;;;;;;;;;;;20.64;63.96;100630.94;7404989;19;1857;-32
2022/06/20 08:49:57;;;;;;;;;;;;;;;20.64;64.57;100634.47;7406498;19;1541;-32
2022/06/20 08:52:48;;;;;;;;;;;;;;;20.68;64.54;100653.00;7406749;19;1582;-32
2022/06/20 08:55:33;;;;;;;;;;;;;;;21.10;63.39;100631.78;7407041;19;1658;-32
2022/06/20 08:58:05;;;;;;;;;;;;;;;21.72;62.18;100634.53;7401593;19;1862;-33
2022/06/20 09:00:40;;;;;;;;;;;;;;;21.95;61.01;100636.75;7406072;19;1710;-32
2022/06/20 09:03:17;;;;;;;;;;;;;;;22.07;61.44;100632.78;7403387;19;1853;-32
2022/06/20 09:05:58;;;;;;;;;;;;;;;21.93;64.04;100634.19;7406475;19;1413;-33
2022/06/20 09:08:41;;;;;;;;;;;;;;;21.75;65.36;100639.63;7406478;19;1764;-32
2022/06/20 09:11:19;;;;;;;;;;;;;;;21.66;66.32;100627.09;7406342;19;1771;-32
2022/06/20 09:14:09;;;;;;;;;;;;;;;21.61;67.30;100630.28;7406123;19;1749;-32
2022/06/20 09:16:43;;;;;;;;;;;;;;;21.77;66.79;100650.25;7405326;19;1846;-32
2022/06/20 09:19:18;;;;;;;;;;;;;;;21.84;66.76;100622.53;7406690;19;1616;-32
2022/06/20 09:22:01;;;;;;;;;;;;;;;21.96;66.30;100627.66;7406647;19;1810;-32
2022/06/20 09:24:48;;;;;;;;;;;;;;;21.99;66.00;100611.19;7406374;19;1495;-32
2022/06/20 09:27:18;;;;;;;;;;;;;;;22.07;65.56;100626.56;7406043;19;1557;-32
2022/06/20 09:30:05;;;;;;;;;;;;;;;22.11;65.66;100626.06;7406168;19;1908;-32
2022/06/20 09:32:54;;;;;;;;;;;;;;;22.14;65.37;100608.72;7405815;19;1688;-32
2022/06/20 09:35:31;;;;;;;;;;;;;;;22.15;65.15;100605.06;7404520;19;1898;-32
2022/06/20 09:38:14;;;;;;;;;;;;;;;22.17;65.00;100609.25;7403863;19;1892;-32
2022/06/20 09:40:55;;;;;;;;;;;;;;;22.21;64.77;100591.78;7405744;19;1965;-32
2022/06/20 09:43:44;;;;;;;;;;;;;;;22.27;64.89;100611.03;7404787;19;1939;-32
2022/06/20 09:46:29;;;;;;;;;;;;;;;22.21;64.94;100610.63;7404608;19;2090;-32
2022/06/20 09:49:07;;;;;;;;;;;;;;;22.28;64.77;100604.63;7404241;19;1587;-32
2022/06/20 09:51:52;;;;;;;;;;;;;;;22.31;64.60;100596.25;7404788;19;1480;-33
2022/06/20 09:54:27;;;;;;;;;;;;;;;22.39;64.51;100618.66;7404425;19;1870;-32
2022/06/20 09:57:10;;;;;;;;;;;;;;;22.33;64.39;100597.75;7402362;19;1844;-32
2022/06/20 09:59:44;;;;;;;;;;;;;;;22.35;64.42;100613.78;7404635;19;1587;-33
2022/06/20 10:02:16;;;;;;;;;;;;;;;22.31;64.48;100594.38;7403200;19;1831;-32
2022/06/20 10:04:52;;;;;;;;;;;;;;;22.33;64.14;100595.06;7402733;19;1734;-32
2022/06/20 10:07:30;;;;;;;;;;;;;;;22.35;64.00;100586.81;7404889;19;1895;-32
2022/06/20 10:10:04;;;;;;;;;;;;;;;22.35;64.26;100594.91;7405097;19;1826;-32
2022/06/20 10:12:47;;;;;;;;;;;;;;;22.35;64.21;100584.13;7403973;19;1559;-32
2022/06/20 10:15:25;;;;;;;;;;;;;;;22.35;63.98;100578.75;7403686;19;1775;-32
2022/06/20 10:18:01;;;;;;;;;;;;;;;22.40;63.78;100587.16;7403208;19;1854;-32
2022/06/20 10:20:40;;;;;;;;;;;;;;;22.41;64.05;100594.25;7401941;19;1982;-32
2022/06/20 10:23:19;;;;;;;;;;;;;;;22.53;63.36;100574.09;7404105;19;1848;-32
2022/06/20 10:26:03;;;;;;;;;;;;;;;22.64;63.17;100579.19;7403417;19;1641;-32
2022/06/20 10:28:44;;;;;;;;;;;;;;;22.58;63.01;100570.91;7401583;19;2279;-32
2022/06/20 10:31:23;;;;;;;;;;;;;;;22.53;63.37;100579.47;7403461;19;1768;-33
2022/06/20 10:34:02;;;;;;;;;;;;;;;22.56;63.21;100571.09;7402073;19;1617;-34
2022/06/20 10:36:52;;;;;;;;;;;;;;;22.49;64.33;100558.41;7403774;19;1851;-33
2022/06/20 10:39:32;;;;;;;;;;;;;;;22.34;65.21;100567.13;7403380;19;1609;-32
2022/06/20 10:42:13;;;;;;;;;;;;;;;22.29;65.40;100566.75;7404511;19;1829;-32
2022/06/20 10:45:11;;;;;;;;;;;;;;;22.29;65.61;100571.31;7402837;19;1847;-32
2022/06/20 10:47:50;;;;;;;;;;;;;;;22.26;65.52;100569.75;7403170;19;1817;-32
2022/06/20 10:50:36;;;;;;;;;;;;;;;22.22;65.99;100547.69;7403047;19;1597;-32
2022/06/20 10:53:12;;;;;;;;;;;;;;;22.23;65.82;100549.38;7403178;19;1820;-32
2022/06/20 10:55:51;;;;;;;;;;;;;;;22.24;65.92;100559.19;7403318;19;1899;-33
2022/06/20 10:58:31;;;;;;;;;;;;;;;22.23;66.20;100557.44;7401261;19;1867;-32
2022/06/20 11:01:10;;;;;;;;;;;;;;;22.21;66.22;100535.22;7402075;19;1797;-32
2022/06/20 11:04:07;;;;;;;;;;;;;;;22.27;65.96;100554.47;7402134;19;1605;-32
2022/06/20 11:06:53;;;;;;;;;;;;;;;22.25;65.90;100546.53;7401035;19;1691;-33
2022/06/20 11:09:25;;;;;;;;;;;;;;;22.29;65.92;100541.69;7402562;19;1793;-33
2022/06/20 11:12:00;;;;;;;;;;;;;;;22.23;66.00;100527.81;7404128;19;1552;-33
2022/06/20 11:14:35;;;;;;;;;;;;;;;22.23;66.16;100525.13;7402409;19;1665;-32
2022/06/20 11:17:21;;;;;;;;;;;;;;;22.26;65.83;100528.53;7400900;19;1867;-33
2022/06/20 11:19:58;;;;;;;;;;;;;;;22.30;65.76;100524.50;7401072;19;1680;-33
2022/06/20 11:22:32;;;;;;;;;;;;;;;22.30;66.10;100521.81;7400785;19;1668;-33
2022/06/20 11:25:09;;;;;;;;;;;;;;;22.30;66.13;100508.34;7403141;19;1690;-33
2022/06/20 11:28:10;;;;;;;;;;;;;;;22.31;65.75;100504.66;7401126;19;1753;-33
2022/06/20 11:30:46;;;;;;;;;;;;;;;22.33;65.84;100522.31;7401168;19;1946;-33
2022/06/20 11:34:00;;;;;;;;;;;;;;;22.33;65.96;100497.25;7400859;19;1466;-33
2022/06/20 11:36:27;;;;;;;;;;;;;;;22.34;65.67;100497.09;7401265;19;1703;-33
2022/06/20 11:39:04;;;;;;;;;;;;;;;22.32;65.77;100504.50;7399765;19;1842;-33
2022/06/20 11:41:41;;;;;;;;;;;;;;;22.31;65.78;100510.03;7401461;19;1767;-33
2022/06/20 11:44:27;;;;;;;;;;;;;;;22.32;66.03;100493.72;7401027;19;1657;-33
2022/06/20 11:47:24;;;;;;;;;;;;;;;22.46;65.55;100496.75;7401092;19;1604;-33
2022/06/20 11:50:12;;;;;;;;;;;;;;;22.46;65.35;100478.72;7399359;19;1720;-33
2022/06/20 11:52:51;;;;;;;;;;;;;;;22.51;65.14;100464.78;7401481;19;1785;-33
2022/06/20 11:55:25;;;;;;;;;;;;;;;22.56;64.79;100463.28;7401930;19;1753;-33
2022/06/20 11:58:00;;;;;;;;;;;;;;;22.55;64.85;100453.50;7398822;19;1850;-33
2022/06/20 12:00:38;;;;;;;;;;;;;;;22.54;64.68;100457.22;7399911;19;1373;-33
2022/06/20 12:03:18;;;;;;;;;;;;;;;22.53;64.83;100463.59;7398947;19;1462;-33
2022/06/20 12:05:55;;;;;;;;;;;;;;;22.60;64.75;100453.00;7400092;19;1891;-33
2022/06/20 12:08:32;;;;;;;;;;;;;;;22.59;64.44;100462.94;7400036;19;2202;-33
2022/06/20 12:11:10;;;;;;;;;;;;;;;22.60;64.30;100451.16;7400650;19;1764;-33
2022/06/20 12:13:46;;;;;;;;;;;;;;;22.58;64.35;100455.88;7400885;19;1695;-32
2022/06/20 12:16:29;;;;;;;;;;;;;;;22.63;64.30;100453.50;7400398;19;1746;-33
2022/06/20 12:24:55;;;;;;;;;;;;;;;22.66;64.59;100452.34;7409303;19;1489;-33
2022/06/20 12:27:24;;;;;;;;;;;;;;;22.73;64.79;100463.28;7407588;19;1675;-33
2022/06/20 12:30:13;;;;;;;;;;;;;;;22.64;65.01;100438.16;7406783;19;1587;-33
2022/06/20 12:33:04;;;;;;;;;;;;;;;22.57;65.53;100447.94;7405543;19;1643;-33
2022/06/20 12:35:37;;;;;;;;;;;;;;;22.54;65.28;100459.03;7407335;19;1741;-33
2022/06/20 12:38:19;;;;;;;;;;;;;;;22.50;65.26;100430.75;7406293;19;1905;-33
2022/06/20 12:40:54;;;;;;;;;;;;;;;22.51;64.93;100433.28;7406941;19;1934;-33
2022/06/20 12:43:44;;;;;;;;;;;;;;;22.49;65.20;100429.91;7407170;19;1736;-33
2022/06/20 12:46:28;;;;;;;;;;;;;;;22.47;65.08;100425.72;7406496;19;1721;-33
2022/06/20 12:49:20;;;;;;;;;;;;;;;22.47;65.25;100426.56;7406333;19;1856;-33
2022/06/20 12:51:52;;;;;;;;;;;;;;;22.46;65.36;100418.63;7403856;19;1786;-33
2022/06/20 12:54:28;;;;;;;;;;;;;;;22.50;65.17;100430.75;7406885;19;1766;-33
2022/06/20 12:57:09;;;;;;;;;;;;;;;22.47;65.08;100414.94;7405762;19;1670;-33
2022/06/20 12:59:55;;;;;;;;;;;;;;;22.48;64.97;100412.03;7406906;19;1656;-33
2022/06/20 13:02:26;;;;;;;;;;;;;;;22.48;64.80;100400.44;7404939;19;1491;-33
2022/06/20 13:05:30;;;;;;;;;;;;;;;22.46;64.87;100408.69;7406114;19;1571;-33
2022/06/20 13:08:17;;;;;;;;;;;;;;;22.50;64.84;100414.59;7401607;19;1997;-33
2022/06/20 13:10:59;;;;;;;;;;;;;;;22.47;64.88;100402.28;7404333;19;1586;-33
2022/06/20 13:13:54;;;;;;;;;;;;;;;22.43;65.06;100388.31;7406293;19;1423;-33
2022/06/20 13:16:28;;;;;;;;;;;;;;;22.41;65.10;100376.84;7405518;19;1739;-33
2022/06/20 13:19:12;;;;;;;;;;;;;;;22.43;65.09;100391.00;7404122;19;1859;-33
2022/06/20 13:21:52;;;;;;;;;;;;;;;22.44;64.67;100398.09;7406292;19;1845;-33
2022/06/20 13:24:34;;;;;;;;;;;;;;;22.45;65.00;100393.53;7406681;19;1673;-33
2022/06/20 13:27:20;;;;;;;;;;;;;;;22.41;64.84;100374.16;7406212;19;2085;-33
2022/06/20 13:29:55;;;;;;;;;;;;;;;22.39;65.07;100356.50;7405823;19;1767;-33
2022/06/20 13:32:27;;;;;;;;;;;;;;;22.41;65.25;100373.34;7402193;19;1587;-33
2022/06/20 13:34:58;;;;;;;;;;;;;;;22.41;65.10;100374.16;7403216;19;1714;-33
2022/06/20 13:37:37;;;;;;;;;;;;;;;22.43;65.13;100368.63;7405318;19;1871;-33
2022/06/20 13:40:19;;;;;;;;;;;;;;;22.42;64.98;100366.91;7405923;19;1846;-32
2022/06/20 13:42:51;;;;;;;;;;;;;;;22.42;64.62;100366.91;7404257;19;1841;-32
2022/06/20 13:45:35;;;;;;;;;;;;;;;22.40;64.85;100355.47;7405039;19;1654;-32
2022/06/20 13:48:13;;;;;;;;;;;;;;;22.43;64.57;100352.44;7404339;19;1679;-32
2022/06/20 13:50:45;;;;;;;;;;;;;;;22.41;64.59;100355.31;7404235;19;1733;-33
2022/06/20 13:53:19;;;;;;;;;;;;;;;22.40;64.45;100360.84;7404416;19;1774;-33
2022/06/20 13:55:55;;;;;;;;;;;;;;;22.40;64.72;100352.78;7405515;19;1915;-33
2022/06/20 13:58:48;;;;;;;;;;;;;;;22.39;64.51;100360.03;7402258;19;1863;-33
2022/06/20 14:01:20;;;;;;;;;;;;;;;22.39;64.40;100353.81;7402875;19;1453;-33
2022/06/20 14:03:54;;;;;;;;;;;;;;;22.42;64.42;100366.91;7404685;19;1419;-33